sensor_id;sensor_type;location;lat;lon;timestamp;temperature;humidity
5647;DHT22;2845;48.626;9.362;2022-08-25T00:01:29;18.20;95.50
5647;DHT22;2845;48.626;9.362;2022-08-25T00:04:08;17.50;95.20
5647;DHT22;2845;48.626;9.362;2022-08-25T00:06:46;17.50;95.10
5647;DHT22;2845;48.626;9.362;2022-08-25T00:09:43;19.60;95.80
5647;DHT22;2845;48.626;9.362;2022-08-25T00:12:20;17.60;95.10
5647;DHT22;2845;48.626;9.362;2022-08-25T00:14:55;17.60;94.90
5647;DHT22;2845;48.626;9.362;2022-08-25T00:17:31;17.70;94.90
5647;DHT22;2845;48.626;9.362;2022-08-25T00:20:08;17.60;95.00
5647;DHT22;2845;48.626;9.362;2022-08-25T00:22:44;17.60;95.20
5647;DHT22;2845;48.626;9.362;2022-08-25T00:25:18;19.90;95.70
5647;DHT22;2845;48.626;9.362;2022-08-25T00:27:57;17.40;95.40
5647;DHT22;2845;48.626;9.362;2022-08-25T00:30:44;17.50;95.50
5647;DHT22;2845;48.626;9.362;2022-08-25T00:33:18;19.90;95.80
5647;DHT22;2845;48.626;9.362;2022-08-25T00:35:57;19.50;95.90
5647;DHT22;2845;48.626;9.362;2022-08-25T00:38:32;20.30;96.00
5647;DHT22;2845;48.626;9.362;2022-08-25T00:41:14;18.80;95.90
5647;DHT22;2845;48.626;9.362;2022-08-25T00:43:59;17.30;95.50
5647;DHT22;2845;48.626;9.362;2022-08-25T00:46:43;18.80;95.90
5647;DHT22;2845;48.626;9.362;2022-08-25T00:49:24;20.00;96.50
5647;DHT22;2845;48.626;9.362;2022-08-25T00:52:23;17.20;95.70
5647;DHT22;2845;48.626;9.362;2022-08-25T00:55:18;18.40;95.90
5647;DHT22;2845;48.626;9.362;2022-08-25T00:58:06;17.20;95.50
5647;DHT22;2845;48.626;9.362;2022-08-25T01:00:49;17.10;95.60
5647;DHT22;2845;48.626;9.362;2022-08-25T01:03:28;17.00;95.70
5647;DHT22;2845;48.626;9.362;2022-08-25T01:06:08;17.10;95.90
5647;DHT22;2845;48.626;9.362;2022-08-25T01:08:44;18.70;96.20
5647;DHT22;2845;48.626;9.362;2022-08-25T01:11:19;19.30;96.30
5647;DHT22;2845;48.626;9.362;2022-08-25T01:13:56;17.80;96.20
5647;DHT22;2845;48.626;9.362;2022-08-25T01:16:39;17.20;95.80
5647;DHT22;2845;48.626;9.362;2022-08-25T01:19:15;17.00;95.70
5647;DHT22;2845;48.626;9.362;2022-08-25T01:21:53;18.20;96.10
5647;DHT22;2845;48.626;9.362;2022-08-25T01:24:56;20.10;96.50
5647;DHT22;2845;48.626;9.362;2022-08-25T01:27:33;17.20;95.80
5647;DHT22;2845;48.626;9.362;2022-08-25T01:30:26;18.90;96.20
5647;DHT22;2845;48.626;9.362;2022-08-25T01:33:03;17.10;95.70
5647;DHT22;2845;48.626;9.362;2022-08-25T01:35:39;17.00;95.70
5647;DHT22;2845;48.626;9.362;2022-08-25T01:38:27;19.80;96.60
5647;DHT22;2845;48.626;9.362;2022-08-25T01:41:15;18.10;96.10
5647;DHT22;2845;48.626;9.362;2022-08-25T01:43:56;17.30;96.10
5647;DHT22;2845;48.626;9.362;2022-08-25T01:46:38;17.10;95.80
5647;DHT22;2845;48.626;9.362;2022-08-25T01:49:14;17.20;95.90
5647;DHT22;2845;48.626;9.362;2022-08-25T01:51:52;20.50;96.60
5647;DHT22;2845;48.626;9.362;2022-08-25T01:57:50;17.10;95.90
5647;DHT22;2845;48.626;9.362;2022-08-25T02:00:25;18.60;96.30
5647;DHT22;2845;48.626;9.362;2022-08-25T02:02:59;17.00;95.80
5647;DHT22;2845;48.626;9.362;2022-08-25T02:05:38;20.30;96.60
5647;DHT22;2845;48.626;9.362;2022-08-25T02:08:13;16.70;95.90
5647;DHT22;2845;48.626;9.362;2022-08-25T02:10:57;16.70;96.00
5647;DHT22;2845;48.626;9.362;2022-08-25T02:13:44;16.50;96.00
5647;DHT22;2845;48.626;9.362;2022-08-25T02:16:22;18.50;96.50
5647;DHT22;2845;48.626;9.362;2022-08-25T02:19:02;17.70;96.30
5647;DHT22;2845;48.626;9.362;2022-08-25T02:21:44;16.70;96.00
5647;DHT22;2845;48.626;9.362;2022-08-25T02:24:18;18.70;96.50
5647;DHT22;2845;48.626;9.362;2022-08-25T02:26:55;16.50;95.90
5647;DHT22;2845;48.626;9.362;2022-08-25T02:29:38;16.50;96.00
5647;DHT22;2845;48.626;9.362;2022-08-25T02:32:14;16.50;96.00
5647;DHT22;2845;48.626;9.362;2022-08-25T02:34:48;16.60;96.00
5647;DHT22;2845;48.626;9.362;2022-08-25T02:37:23;16.60;96.10
5647;DHT22;2845;48.626;9.362;2022-08-25T02:40:03;16.60;95.90
5647;DHT22;2845;48.626;9.362;2022-08-25T02:42:40;16.50;96.10
5647;DHT22;2845;48.626;9.362;2022-08-25T02:45:37;17.80;96.50
5647;DHT22;2845;48.626;9.362;2022-08-25T02:48:20;16.50;96.40
5647;DHT22;2845;48.626;9.362;2022-08-25T02:50:58;16.60;96.30
5647;DHT22;2845;48.626;9.362;2022-08-25T02:53:39;19.20;96.80
5647;DHT22;2845;48.626;9.362;2022-08-25T02:56:20;16.90;96.30
5647;DHT22;2845;48.626;9.362;2022-08-25T02:58:56;16.60;96.30
5647;DHT22;2845;48.626;9.362;2022-08-25T03:01:31;16.50;96.30
5647;DHT22;2845;48.626;9.362;2022-08-25T03:04:06;17.40;96.60
5647;DHT22;2845;48.626;9.362;2022-08-25T03:06:40;16.40;96.40
5647;DHT22;2845;48.626;9.362;2022-08-25T03:09:26;16.40;96.40
5647;DHT22;2845;48.626;9.362;2022-08-25T03:12:02;15.70;96.30
5647;DHT22;2845;48.626;9.362;2022-08-25T03:14:39;16.30;96.50
5647;DHT22;2845;48.626;9.362;2022-08-25T03:17:26;17.30;96.70
5647;DHT22;2845;48.626;9.362;2022-08-25T03:20:03;16.30;96.50
5647;DHT22;2845;48.626;9.362;2022-08-25T03:22:38;16.20;96.50
5647;DHT22;2845;48.626;9.362;2022-08-25T03:25:12;16.20;96.40
5647;DHT22;2845;48.626;9.362;2022-08-25T03:28:14;17.30;96.90
5647;DHT22;2845;48.626;9.362;2022-08-25T03:31:07;17.60;96.80
5647;DHT22;2845;48.626;9.362;2022-08-25T03:33:44;14.40;96.40
5647;DHT22;2845;48.626;9.362;2022-08-25T03:36:18;16.10;96.50
5647;DHT22;2845;48.626;9.362;2022-08-25T03:38:53;16.40;96.60
5647;DHT22;2845;48.626;9.362;2022-08-25T03:41:32;16.60;96.50
5647;DHT22;2845;48.626;9.362;2022-08-25T03:44:09;16.70;96.50
5647;DHT22;2845;48.626;9.362;2022-08-25T03:46:57;17.60;97.00
5647;DHT22;2845;48.626;9.362;2022-08-25T03:49:38;15.10;96.30
5647;DHT22;2845;48.626;9.362;2022-08-25T03:52:13;16.00;96.40
5647;DHT22;2845;48.626;9.362;2022-08-25T03:54:50;15.90;96.40
5647;DHT22;2845;48.626;9.362;2022-08-25T03:57:24;18.50;97.40
5647;DHT22;2845;48.626;9.362;2022-08-25T04:00:03;15.90;96.70
5647;DHT22;2845;48.626;9.362;2022-08-25T04:02:46;15.90;96.50
5647;DHT22;2845;48.626;9.362;2022-08-25T04:05:26;16.00;96.60
5647;DHT22;2845;48.626;9.362;2022-08-25T04:08:01;16.30;96.60
5647;DHT22;2845;48.626;9.362;2022-08-25T04:10:38;15.80;97.00
5647;DHT22;2845;48.626;9.362;2022-08-25T04:13:12;15.80;97.00
5647;DHT22;2845;48.626;9.362;2022-08-25T04:15:50;15.80;97.20
5647;DHT22;2845;48.626;9.362;2022-08-25T04:18:38;16.60;97.30
5647;DHT22;2845;48.626;9.362;2022-08-25T04:21:13;17.70;97.60
5647;DHT22;2845;48.626;9.362;2022-08-25T04:23:50;15.90;97.30
5647;DHT22;2845;48.626;9.362;2022-08-25T04:26:27;15.90;97.00
5647;DHT22;2845;48.626;9.362;2022-08-25T04:29:09;19.40;97.80
5647;DHT22;2845;48.626;9.362;2022-08-25T04:31:46;16.90;97.20
5647;DHT22;2845;48.626;9.362;2022-08-25T04:34:32;16.70;97.10
5647;DHT22;2845;48.626;9.362;2022-08-25T04:37:09;15.80;96.90
5647;DHT22;2845;48.626;9.362;2022-08-25T04:39:48;19.50;98.10
5647;DHT22;2845;48.626;9.362;2022-08-25T04:42:32;15.70;96.90
5647;DHT22;2845;48.626;9.362;2022-08-25T04:45:18;16.40;97.10
5647;DHT22;2845;48.626;9.362;2022-08-25T04:48:02;15.80;97.50
5647;DHT22;2845;48.626;9.362;2022-08-25T04:50:42;15.70;97.20
5647;DHT22;2845;48.626;9.362;2022-08-25T04:53:18;18.10;97.50
5647;DHT22;2845;48.626;9.362;2022-08-25T04:56:10;15.60;97.20
5647;DHT22;2845;48.626;9.362;2022-08-25T04:58:51;16.70;97.10
5647;DHT22;2845;48.626;9.362;2022-08-25T05:01:50;15.70;96.90
5647;DHT22;2845;48.626;9.362;2022-08-25T05:04:37;15.80;97.00
5647;DHT22;2845;48.626;9.362;2022-08-25T05:07:16;15.70;96.90
5647;DHT22;2845;48.626;9.362;2022-08-25T05:10:19;17.90;97.70
5647;DHT22;2845;48.626;9.362;2022-08-25T05:12:57;15.70;97.00
5647;DHT22;2845;48.626;9.362;2022-08-25T05:16:02;15.80;97.10
5647;DHT22;2845;48.626;9.362;2022-08-25T05:18:44;15.80;97.00
5647;DHT22;2845;48.626;9.362;2022-08-25T05:21:27;15.80;97.50
5647;DHT22;2845;48.626;9.362;2022-08-25T05:24:16;18.60;98.20
5647;DHT22;2845;48.626;9.362;2022-08-25T05:27:08;15.80;97.60
5647;DHT22;2845;48.626;9.362;2022-08-25T05:29:45;16.00;97.70
5647;DHT22;2845;48.626;9.362;2022-08-25T05:32:44;17.80;97.80
5647;DHT22;2845;48.626;9.362;2022-08-25T05:35:20;17.10;97.60
5647;DHT22;2845;48.626;9.362;2022-08-25T05:37:57;18.80;98.40
5647;DHT22;2845;48.626;9.362;2022-08-25T05:40:45;19.50;98.20
5647;DHT22;2845;48.626;9.362;2022-08-25T05:43:39;17.20;97.60
5647;DHT22;2845;48.626;9.362;2022-08-25T05:46:21;16.40;97.30
5647;DHT22;2845;48.626;9.362;2022-08-25T05:49:02;16.90;97.60
5647;DHT22;2845;48.626;9.362;2022-08-25T05:51:50;16.50;97.40
5647;DHT22;2845;48.626;9.362;2022-08-25T05:54:25;16.60;97.40
5647;DHT22;2845;48.626;9.362;2022-08-25T05:57:05;16.70;97.20
5647;DHT22;2845;48.626;9.362;2022-08-25T05:59:40;16.80;97.10
5647;DHT22;2845;48.626;9.362;2022-08-25T06:02:20;17.70;97.30
5647;DHT22;2845;48.626;9.362;2022-08-25T06:05:13;16.10;96.70
5647;DHT22;2845;48.626;9.362;2022-08-25T06:07:50;17.20;97.00
5647;DHT22;2845;48.626;9.362;2022-08-25T06:10:25;17.60;97.40
5647;DHT22;2845;48.626;9.362;2022-08-25T06:13:04;17.50;97.30
5647;DHT22;2845;48.626;9.362;2022-08-25T06:15:39;19.00;97.40
5647;DHT22;2845;48.626;9.362;2022-08-25T06:18:13;20.00;97.50
5647;DHT22;2845;48.626;9.362;2022-08-25T06:20:49;19.00;97.00
5647;DHT22;2845;48.626;9.362;2022-08-25T06:23:26;17.80;96.90
5647;DHT22;2845;48.626;9.362;2022-08-25T06:26:09;19.70;97.00
5647;DHT22;2845;48.626;9.362;2022-08-25T06:29:09;18.10;96.70
5647;DHT22;2845;48.626;9.362;2022-08-25T06:31:46;18.20;96.30
5647;DHT22;2845;48.626;9.362;2022-08-25T06:34:26;18.50;96.20
5647;DHT22;2845;48.626;9.362;2022-08-25T06:37:01;18.30;95.90
5647;DHT22;2845;48.626;9.362;2022-08-25T06:39:38;18.30;96.00
5647;DHT22;2845;48.626;9.362;2022-08-25T06:42:49;18.50;96.10
5647;DHT22;2845;48.626;9.362;2022-08-25T06:45:27;18.70;95.80
5647;DHT22;2845;48.626;9.362;2022-08-25T06:48:02;19.90;95.90
5647;DHT22;2845;48.626;9.362;2022-08-25T06:50:37;18.90;95.40
5647;DHT22;2845;48.626;9.362;2022-08-25T06:53:14;19.30;95.90
5647;DHT22;2845;48.626;9.362;2022-08-25T06:55:55;19.10;94.60
5647;DHT22;2845;48.626;9.362;2022-08-25T06:58:35;19.30;94.90
5647;DHT22;2845;48.626;9.362;2022-08-25T07:01:13;19.30;95.30
5647;DHT22;2845;48.626;9.362;2022-08-25T07:03:54;22.30;95.90
5647;DHT22;2845;48.626;9.362;2022-08-25T07:06:32;21.10;96.20
5647;DHT22;2845;48.626;9.362;2022-08-25T07:09:10;21.10;95.30
5647;DHT22;2845;48.626;9.362;2022-08-25T07:11:45;19.80;94.20
5647;DHT22;2845;48.626;9.362;2022-08-25T07:14:26;22.00;94.90
5647;DHT22;2845;48.626;9.362;2022-08-25T07:17:02;21.50;94.70
5647;DHT22;2845;48.626;9.362;2022-08-25T07:19:44;19.90;94.00
5647;DHT22;2845;48.626;9.362;2022-08-25T07:22:20;21.60;94.60
5647;DHT22;2845;48.626;9.362;2022-08-25T07:24:55;22.10;95.00
5647;DHT22;2845;48.626;9.362;2022-08-25T07:27:29;21.70;93.60
5647;DHT22;2845;48.626;9.362;2022-08-25T07:30:06;23.40;95.60
5647;DHT22;2845;48.626;9.362;2022-08-25T07:33:15;20.60;93.90
5647;DHT22;2845;48.626;9.362;2022-08-25T07:35:56;20.70;92.70
5647;DHT22;2845;48.626;9.362;2022-08-25T07:38:38;21.10;94.80
5647;DHT22;2845;48.626;9.362;2022-08-25T07:41:43;21.20;94.80
5647;DHT22;2845;48.626;9.362;2022-08-25T07:44:49;21.60;94.20
5647;DHT22;2845;48.626;9.362;2022-08-25T07:47:25;21.80;93.20
5647;DHT22;2845;48.626;9.362;2022-08-25T07:50:03;22.10;94.00
5647;DHT22;2845;48.626;9.362;2022-08-25T07:55:56;21.90;93.60
5647;DHT22;2845;48.626;9.362;2022-08-25T07:58:32;24.70;94.00
5647;DHT22;2845;48.626;9.362;2022-08-25T08:01:11;22.30;92.20
5647;DHT22;2845;48.626;9.362;2022-08-25T08:03:47;22.60;93.50
5647;DHT22;2845;48.626;9.362;2022-08-25T08:06:27;22.80;93.60
5647;DHT22;2845;48.626;9.362;2022-08-25T08:09:14;22.30;93.50
5647;DHT22;2845;48.626;9.362;2022-08-25T08:20:11;22.90;91.80
5647;DHT22;2845;48.626;9.362;2022-08-25T08:23:04;22.90;91.70
5647;DHT22;2845;48.626;9.362;2022-08-25T08:26:07;23.00;92.60
5647;DHT22;2845;48.626;9.362;2022-08-25T08:28:42;23.10;92.40
5647;DHT22;2845;48.626;9.362;2022-08-25T08:31:32;24.20;92.30
5647;DHT22;2845;48.626;9.362;2022-08-25T08:37:38;23.40;91.00
5647;DHT22;2845;48.626;9.362;2022-08-25T08:48:23;24.20;90.90
5647;DHT22;2845;48.626;9.362;2022-08-25T08:51:23;23.80;91.00
5647;DHT22;2845;48.626;9.362;2022-08-25T09:01:43;24.00;90.10
5647;DHT22;2845;48.626;9.362;2022-08-25T09:04:28;24.00;89.70
5647;DHT22;2845;48.626;9.362;2022-08-25T09:07:11;23.90;90.00
5647;DHT22;2845;48.626;9.362;2022-08-25T09:21:45;24.10;89.30
5647;DHT22;2845;48.626;9.362;2022-08-25T09:28:50;24.50;88.30
5647;DHT22;2845;48.626;9.362;2022-08-25T09:31:49;24.40;87.80
5647;DHT22;2845;48.626;9.362;2022-08-25T09:38:14;24.50;88.10
5647;DHT22;2845;48.626;9.362;2022-08-25T09:40:55;24.50;88.10
5647;DHT22;2845;48.626;9.362;2022-08-25T09:43:34;24.70;87.40
5647;DHT22;2845;48.626;9.362;2022-08-25T09:46:12;25.60;87.60
5647;DHT22;2845;48.626;9.362;2022-08-25T09:48:52;25.10;87.20
5647;DHT22;2845;48.626;9.362;2022-08-25T09:51:34;25.30;85.80
5647;DHT22;2845;48.626;9.362;2022-08-25T09:54:18;26.40;86.80
5647;DHT22;2845;48.626;9.362;2022-08-25T09:57:35;26.90;87.50
5647;DHT22;2845;48.626;9.362;2022-08-25T10:00:23;26.20;86.50
5647;DHT22;2845;48.626;9.362;2022-08-25T10:03:04;25.30;85.30
5647;DHT22;2845;48.626;9.362;2022-08-25T10:06:06;26.20;85.60
5647;DHT22;2845;48.626;9.362;2022-08-25T10:09:21;25.70;84.30
5647;DHT22;2845;48.626;9.362;2022-08-25T10:12:15;25.60;84.40
5647;DHT22;2845;48.626;9.362;2022-08-25T10:15:15;25.10;84.80
5647;DHT22;2845;48.626;9.362;2022-08-25T10:18:23;25.10;84.90
5647;DHT22;2845;48.626;9.362;2022-08-25T10:21:11;25.30;84.50
5647;DHT22;2845;48.626;9.362;2022-08-25T10:23:50;25.00;84.80
5647;DHT22;2845;48.626;9.362;2022-08-25T10:26:35;25.30;84.70
5647;DHT22;2845;48.626;9.362;2022-08-25T10:29:30;25.50;84.40
5647;DHT22;2845;48.626;9.362;2022-08-25T10:32:17;25.70;83.60
5647;DHT22;2845;48.626;9.362;2022-08-25T10:34:58;27.40;84.00
5647;DHT22;2845;48.626;9.362;2022-08-25T10:37:44;25.40;84.60
5647;DHT22;2845;48.626;9.362;2022-08-25T10:40:44;27.00;85.10
5647;DHT22;2845;48.626;9.362;2022-08-25T10:43:32;26.00;83.30
5647;DHT22;2845;48.626;9.362;2022-08-25T10:46:14;27.00;82.70
5647;DHT22;2845;48.626;9.362;2022-08-25T10:49:21;26.50;82.20
5647;DHT22;2845;48.626;9.362;2022-08-25T10:52:06;26.60;81.80
5647;DHT22;2845;48.626;9.362;2022-08-25T10:54:57;26.50;82.90
5647;DHT22;2845;48.626;9.362;2022-08-25T10:57:44;26.70;84.00
5647;DHT22;2845;48.626;9.362;2022-08-25T11:00:31;26.40;82.20
5647;DHT22;2845;48.626;9.362;2022-08-25T11:03:40;26.40;82.30
5647;DHT22;2845;48.626;9.362;2022-08-25T11:06:38;26.60;80.10
5647;DHT22;2845;48.626;9.362;2022-08-25T11:12:41;26.30;82.10
5647;DHT22;2845;48.626;9.362;2022-08-25T11:15:25;26.60;81.80
5647;DHT22;2845;48.626;9.362;2022-08-25T11:18:11;27.10;80.90
5647;DHT22;2845;48.626;9.362;2022-08-25T11:20:52;27.50;79.40
5647;DHT22;2845;48.626;9.362;2022-08-25T11:23:35;29.40;81.10
5647;DHT22;2845;48.626;9.362;2022-08-25T11:26:36;26.30;80.00
5647;DHT22;2845;48.626;9.362;2022-08-25T11:29:15;26.80;80.60
5647;DHT22;2845;48.626;9.362;2022-08-25T11:32:08;28.60;82.00
5647;DHT22;2845;48.626;9.362;2022-08-25T11:34:59;26.60;80.60
5647;DHT22;2845;48.626;9.362;2022-08-25T11:38:12;27.20;81.00
5647;DHT22;2845;48.626;9.362;2022-08-25T11:41:14;26.60;80.80
5647;DHT22;2845;48.626;9.362;2022-08-25T11:44:21;26.90;80.30
5647;DHT22;2845;48.626;9.362;2022-08-25T11:47:54;27.30;79.30
5647;DHT22;2845;48.626;9.362;2022-08-25T11:50:55;27.10;79.90
5647;DHT22;2845;48.626;9.362;2022-08-25T11:53:34;26.90;80.50
5647;DHT22;2845;48.626;9.362;2022-08-25T11:56:30;27.00;80.60
5647;DHT22;2845;48.626;9.362;2022-08-25T11:59:08;28.90;80.50
5647;DHT22;2845;48.626;9.362;2022-08-25T12:02:17;27.40;79.00
5647;DHT22;2845;48.626;9.362;2022-08-25T12:19:56;27.30;79.00
5647;DHT22;2845;48.626;9.362;2022-08-25T12:22:54;28.70;80.20
5647;DHT22;2845;48.626;9.362;2022-08-25T12:25:38;27.50;78.40
5647;DHT22;2845;48.626;9.362;2022-08-25T12:28:39;28.00;78.30
5647;DHT22;2845;48.626;9.362;2022-08-25T12:31:57;28.30;76.40
5647;DHT22;2845;48.626;9.362;2022-08-25T12:35:48;28.30;76.40
5647;DHT22;2845;48.626;9.362;2022-08-25T12:38:30;28.30;75.10
5647;DHT22;2845;48.626;9.362;2022-08-25T12:41:26;28.50;73.30
5647;DHT22;2845;48.626;9.362;2022-08-25T12:44:40;28.50;75.40
5647;DHT22;2845;48.626;9.362;2022-08-25T12:47:32;28.20;76.10
5647;DHT22;2845;48.626;9.362;2022-08-25T12:50:45;28.20;74.90
5647;DHT22;2845;48.626;9.362;2022-08-25T12:57:22;27.60;74.70
5647;DHT22;2845;48.626;9.362;2022-08-25T13:07:29;29.20;73.00
5647;DHT22;2845;48.626;9.362;2022-08-25T13:10:27;28.90;73.20
5647;DHT22;2845;48.626;9.362;2022-08-25T13:13:42;28.40;75.40
5647;DHT22;2845;48.626;9.362;2022-08-25T13:16:25;28.80;74.20
5647;DHT22;2845;48.626;9.362;2022-08-25T13:19:20;28.80;74.50
5647;DHT22;2845;48.626;9.362;2022-08-25T13:22:10;30.00;75.20
5647;DHT22;2845;48.626;9.362;2022-08-25T13:24:59;28.40;74.20
5647;DHT22;2845;48.626;9.362;2022-08-25T13:27:48;27.80;71.70
5647;DHT22;2845;48.626;9.362;2022-08-25T13:30:27;28.50;74.10
5647;DHT22;2845;48.626;9.362;2022-08-25T13:33:16;28.20;73.80
5647;DHT22;2845;48.626;9.362;2022-08-25T13:35:56;28.30;73.90
5647;DHT22;2845;48.626;9.362;2022-08-25T13:39:21;28.60;72.20
5647;DHT22;2845;48.626;9.362;2022-08-25T13:42:25;29.00;71.40
5647;DHT22;2845;48.626;9.362;2022-08-25T13:48:34;29.00;72.70
5647;DHT22;2845;48.626;9.362;2022-08-25T13:51:24;28.80;74.20
5647;DHT22;2845;48.626;9.362;2022-08-25T13:54:24;30.40;73.80
5647;DHT22;2845;48.626;9.362;2022-08-25T13:57:05;29.60;71.30
5647;DHT22;2845;48.626;9.362;2022-08-25T13:59:49;31.00;71.10
5647;DHT22;2845;48.626;9.362;2022-08-25T14:02:47;29.10;73.10
5647;DHT22;2845;48.626;9.362;2022-08-25T14:05:44;31.00;74.60
5647;DHT22;2845;48.626;9.362;2022-08-25T14:12:38;29.80;71.50
5647;DHT22;2845;48.626;9.362;2022-08-25T14:15:42;29.70;70.20
5647;DHT22;2845;48.626;9.362;2022-08-25T14:22:32;30.00;71.30
5647;DHT22;2845;48.626;9.362;2022-08-25T14:25:32;30.00;70.40
5647;DHT22;2845;48.626;9.362;2022-08-25T14:28:11;29.60;68.50
5647;DHT22;2845;48.626;9.362;2022-08-25T14:34:15;29.90;70.30
5647;DHT22;2845;48.626;9.362;2022-08-25T14:40:38;30.30;68.40
5647;DHT22;2845;48.626;9.362;2022-08-25T14:43:13;30.40;67.80
5647;DHT22;2845;48.626;9.362;2022-08-25T14:45:48;31.90;69.30
5647;DHT22;2845;48.626;9.362;2022-08-25T14:48:44;32.20;69.20
5647;DHT22;2845;48.626;9.362;2022-08-25T14:51:24;31.30;67.60
5647;DHT22;2845;48.626;9.362;2022-08-25T14:54:04;31.40;68.00
5647;DHT22;2845;48.626;9.362;2022-08-25T14:57:14;31.20;67.70
5647;DHT22;2845;48.626;9.362;2022-08-25T14:59:49;30.50;69.50
5647;DHT22;2845;48.626;9.362;2022-08-25T15:02:24;30.30;68.50
5647;DHT22;2845;48.626;9.362;2022-08-25T15:05:03;31.80;70.70
5647;DHT22;2845;48.626;9.362;2022-08-25T15:07:41;29.80;70.00
5647;DHT22;2845;48.626;9.362;2022-08-25T15:10:38;32.20;70.50
5647;DHT22;2845;48.626;9.362;2022-08-25T15:13:38;29.50;69.80
5647;DHT22;2845;48.626;9.362;2022-08-25T15:16:17;29.00;70.90
5647;DHT22;2845;48.626;9.362;2022-08-25T15:19:06;28.60;69.50
5647;DHT22;2845;48.626;9.362;2022-08-25T15:21:56;30.20;73.10
5647;DHT22;2845;48.626;9.362;2022-08-25T15:24:46;28.30;72.30
5647;DHT22;2845;48.626;9.362;2022-08-25T15:27:32;28.40;70.90
5647;DHT22;2845;48.626;9.362;2022-08-25T15:30:08;28.90;72.60
5647;DHT22;2845;48.626;9.362;2022-08-25T15:32:50;28.40;72.00
5647;DHT22;2845;48.626;9.362;2022-08-25T15:35:38;31.00;72.10
5647;DHT22;2845;48.626;9.362;2022-08-25T15:38:38;29.00;72.30
5647;DHT22;2845;48.626;9.362;2022-08-25T15:41:15;28.60;70.00
5647;DHT22;2845;48.626;9.362;2022-08-25T15:43:57;28.80;72.00
5647;DHT22;2845;48.626;9.362;2022-08-25T15:46:33;29.80;72.80
5647;DHT22;2845;48.626;9.362;2022-08-25T15:49:20;28.30;72.40
5647;DHT22;2845;48.626;9.362;2022-08-25T15:51:56;28.30;70.70
5647;DHT22;2845;48.626;9.362;2022-08-25T15:58:17;28.50;71.90
5647;DHT22;2845;48.626;9.362;2022-08-25T16:01:02;28.50;70.60
5647;DHT22;2845;48.626;9.362;2022-08-25T16:03:41;28.30;71.20
5647;DHT22;2845;48.626;9.362;2022-08-25T16:06:20;30.50;72.70
5647;DHT22;2845;48.626;9.362;2022-08-25T16:09:14;31.10;71.50
5647;DHT22;2845;48.626;9.362;2022-08-25T16:11:54;28.30;71.40
5647;DHT22;2845;48.626;9.362;2022-08-25T16:14:37;27.90;72.00
5647;DHT22;2845;48.626;9.362;2022-08-25T16:17:14;29.40;73.50
5647;DHT22;2845;48.626;9.362;2022-08-25T16:19:50;28.20;70.90
5647;DHT22;2845;48.626;9.362;2022-08-25T16:22:32;28.10;70.20
5647;DHT22;2845;48.626;9.362;2022-08-25T16:25:15;28.20;71.50
5647;DHT22;2845;48.626;9.362;2022-08-25T16:27:50;28.30;70.00
5647;DHT22;2845;48.626;9.362;2022-08-25T16:30:43;28.20;72.20
5647;DHT22;2845;48.626;9.362;2022-08-25T16:33:26;27.80;72.60
5647;DHT22;2845;48.626;9.362;2022-08-25T16:36:10;29.60;73.20
5647;DHT22;2845;48.626;9.362;2022-08-25T16:39:14;28.50;71.80
5647;DHT22;2845;48.626;9.362;2022-08-25T16:42:02;27.80;72.10
5647;DHT22;2845;48.626;9.362;2022-08-25T16:45:08;27.80;70.60
5647;DHT22;2845;48.626;9.362;2022-08-25T16:48:19;28.00;70.70
5647;DHT22;2845;48.626;9.362;2022-08-25T16:51:26;27.80;73.40
5647;DHT22;2845;48.626;9.362;2022-08-25T16:54:05;27.60;72.00
5647;DHT22;2845;48.626;9.362;2022-08-25T16:57:26;27.60;72.70
5647;DHT22;2845;48.626;9.362;2022-08-25T17:00:03;26.90;72.90
5647;DHT22;2845;48.626;9.362;2022-08-25T17:02:44;27.50;72.60
5647;DHT22;2845;48.626;9.362;2022-08-25T17:05:22;28.50;74.00
5647;DHT22;2845;48.626;9.362;2022-08-25T17:07:59;27.50;72.10
5647;DHT22;2845;48.626;9.362;2022-08-25T17:11:10;27.60;74.00
5647;DHT22;2845;48.626;9.362;2022-08-25T17:13:58;27.50;73.70
5647;DHT22;2845;48.626;9.362;2022-08-25T17:16:35;27.70;72.80
5647;DHT22;2845;48.626;9.362;2022-08-25T17:19:13;27.40;74.10
5647;DHT22;2845;48.626;9.362;2022-08-25T17:21:52;29.00;75.70
5647;DHT22;2845;48.626;9.362;2022-08-25T17:28:04;27.20;74.70
5647;DHT22;2845;48.626;9.362;2022-08-25T17:30:50;27.90;75.30
5647;DHT22;2845;48.626;9.362;2022-08-25T17:33:25;27.10;74.40
5647;DHT22;2845;48.626;9.362;2022-08-25T17:36:01;26.90;74.90
5647;DHT22;2845;48.626;9.362;2022-08-25T17:38:39;26.90;75.20
5647;DHT22;2845;48.626;9.362;2022-08-25T17:41:15;27.00;76.40
5647;DHT22;2845;48.626;9.362;2022-08-25T17:43:50;29.30;77.80
5647;DHT22;2845;48.626;9.362;2022-08-25T17:46:26;28.90;77.80
5647;DHT22;2845;48.626;9.362;2022-08-25T17:49:08;28.30;77.70
5647;DHT22;2845;48.626;9.362;2022-08-25T17:51:56;26.40;76.80
5647;DHT22;2845;48.626;9.362;2022-08-25T17:54:36;26.20;77.10
5647;DHT22;2845;48.626;9.362;2022-08-25T17:57:20;26.40;77.40
5647;DHT22;2845;48.626;9.362;2022-08-25T17:59:56;26.20;77.60
5647;DHT22;2845;48.626;9.362;2022-08-25T18:02:33;27.90;79.00
5647;DHT22;2845;48.626;9.362;2022-08-25T18:05:15;27.40;78.80
5647;DHT22;2845;48.626;9.362;2022-08-25T18:07:52;27.30;79.70
5647;DHT22;2845;48.626;9.362;2022-08-25T18:10:49;26.20;79.00
5647;DHT22;2845;48.626;9.362;2022-08-25T18:13:26;25.80;79.00
5647;DHT22;2845;48.626;9.362;2022-08-25T18:16:07;26.10;79.50
5647;DHT22;2845;48.626;9.362;2022-08-25T18:18:46;25.30;79.60
5647;DHT22;2845;48.626;9.362;2022-08-25T18:21:32;26.20;80.10
5647;DHT22;2845;48.626;9.362;2022-08-25T18:24:07;25.10;80.00
5647;DHT22;2845;48.626;9.362;2022-08-25T18:26:44;24.90;80.20
5647;DHT22;2845;48.626;9.362;2022-08-25T18:29:20;24.80;80.90
5647;DHT22;2845;48.626;9.362;2022-08-25T18:31:56;27.00;81.30
5647;DHT22;2845;48.626;9.362;2022-08-25T18:34:32;25.40;80.70
5647;DHT22;2845;48.626;9.362;2022-08-25T18:37:08;26.60;82.50
5647;DHT22;2845;48.626;9.362;2022-08-25T18:40:03;27.60;83.20
5647;DHT22;2845;48.626;9.362;2022-08-25T18:43:16;24.20;80.90
5647;DHT22;2845;48.626;9.362;2022-08-25T18:46:03;24.20;81.00
5647;DHT22;2845;48.626;9.362;2022-08-25T18:48:41;23.90;80.90
5647;DHT22;2845;48.626;9.362;2022-08-25T18:51:38;23.80;81.90
5647;DHT22;2845;48.626;9.362;2022-08-25T18:54:18;24.60;82.10
5647;DHT22;2845;48.626;9.362;2022-08-25T18:56:58;23.60;81.80
5647;DHT22;2845;48.626;9.362;2022-08-25T19:00:04;23.60;81.90
5647;DHT22;2845;48.626;9.362;2022-08-25T19:02:57;23.70;83.20
5647;DHT22;2845;48.626;9.362;2022-08-25T19:06:12;25.10;83.50
5647;DHT22;2845;48.626;9.362;2022-08-25T19:08:56;23.10;82.90
5647;DHT22;2845;48.626;9.362;2022-08-25T19:11:50;23.70;83.10
5647;DHT22;2845;48.626;9.362;2022-08-25T19:14:27;24.00;83.30
5647;DHT22;2845;48.626;9.362;2022-08-25T19:17:11;24.20;83.90
5647;DHT22;2845;48.626;9.362;2022-08-25T19:20:27;24.70;85.20
5647;DHT22;2845;48.626;9.362;2022-08-25T19:23:08;22.70;83.90
5647;DHT22;2845;48.626;9.362;2022-08-25T19:25:54;25.30;86.10
5647;DHT22;2845;48.626;9.362;2022-08-25T19:29:04;25.00;86.00
5647;DHT22;2845;48.626;9.362;2022-08-25T19:31:51;22.80;85.10
5647;DHT22;2845;48.626;9.362;2022-08-25T19:34:46;22.50;85.40
5647;DHT22;2845;48.626;9.362;2022-08-25T19:37:44;23.90;85.90
5647;DHT22;2845;48.626;9.362;2022-08-25T19:40:21;22.30;85.50
5647;DHT22;2845;48.626;9.362;2022-08-25T19:43:08;23.90;86.50
5647;DHT22;2845;48.626;9.362;2022-08-25T19:46:02;23.70;86.60
5647;DHT22;2845;48.626;9.362;2022-08-25T19:48:52;23.00;86.30